Time;durP1;ratioP1;P1;durP2;ratioP2;P2;SDS_P1;SDS_P2;PMS_P1;PMS_P2;Temp;Humidity;BMP_temperature;BMP_pressure;BME280_temperature;BME280_humidity;BME280_pressure;Samples;Min_cycle;Max_cycle;Signal;HPM_P1;HPM_P2
2022/10/20 00:01:02;;;;;;;80.03;35.03;;;13.70;99.90;;;;;;4997668;28;20050;-75
2022/10/20 00:03:30;;;;;;;77.10;35.40;;;13.60;99.90;;;;;;4996609;28;20069;-75
2022/10/20 00:06:14;;;;;;;81.97;37.10;;;13.60;99.90;;;;;;4997754;28;20059;-75
2022/10/20 00:08:43;;;;;;;81.22;36.30;;;13.60;99.90;;;;;;5013699;28;20054;-76
2022/10/20 00:11:12;;;;;;;90.22;37.55;;;13.70;99.90;;;;;;5015015;28;20061;-74
2022/10/20 00:13:41;;;;;;;75.85;36.55;;;13.60;99.90;;;;;;4997615;28;20057;-75
2022/10/20 00:16:09;;;;;;;82.45;37.53;;;13.70;99.90;;;;;;5013800;28;20046;-75
2022/10/20 00:18:37;;;;;;;84.10;37.22;;;13.80;99.90;;;;;;5014523;28;20042;-76
2022/10/20 00:21:11;;;;;;;90.28;38.00;;;13.70;99.90;;;;;;4997383;28;20385;-75
2022/10/20 00:23:39;;;;;;;71.45;33.28;;;13.70;99.90;;;;;;5014230;28;20054;-74
2022/10/20 00:26:12;;;;;;;86.45;38.30;;;13.70;99.90;;;;;;5014789;28;20469;-76
2022/10/20 00:28:39;;;;;;;76.05;36.33;;;13.70;99.90;;;;;;4996509;28;20045;-76
2022/10/20 00:31:08;;;;;;;89.68;38.80;;;13.70;99.90;;;;;;4997326;28;20061;-74
2022/10/20 00:33:36;;;;;;;79.82;37.88;;;13.70;99.90;;;;;;4981368;28;20385;-76
2022/10/20 00:36:06;;;;;;;84.20;39.13;;;13.80;99.90;;;;;;5013429;28;20058;-74
2022/10/20 00:38:34;;;;;;;83.85;37.03;;;13.80;99.90;;;;;;5014815;28;20062;-75
2022/10/20 00:41:02;;;;;;;74.15;34.85;;;13.80;99.90;;;;;;4996968;28;20465;-74
2022/10/20 00:43:47;;;;;;;;;;;13.90;99.90;;;;;;4996524;28;20064;-74
2022/10/20 00:46:39;;;;;;;72.10;34.08;;;13.90;99.90;;;;;;4998327;28;19921;-74
2022/10/20 00:49:19;;;;;;;79.82;34.50;;;13.90;99.90;;;;;;5017325;28;20057;-74
2022/10/20 00:51:47;;;;;;;74.30;33.10;;;13.90;99.90;;;;;;5018531;28;20357;-75
2022/10/20 00:54:19;;;;;;;78.05;35.72;;;13.90;99.90;;;;;;5017718;28;20046;-76
2022/10/20 00:56:48;;;;;;;72.88;32.63;;;13.90;99.90;;;;;;5016707;28;20053;-75
2022/10/20 00:59:21;;;;;;;85.57;36.45;;;14.20;99.90;;;;;;5017866;28;20046;-75
2022/10/20 01:01:49;;;;;;;85.93;37.60;;;13.80;99.90;;;;;;5016913;28;20044;-76
2022/10/20 01:04:17;;;;;;;86.00;37.75;;;13.80;99.90;;;;;;5017748;28;20061;-75
2022/10/20 01:06:44;;;;;;;86.13;38.28;;;13.80;99.90;;;;;;4984541;28;20049;-75
2022/10/20 01:09:12;;;;;;;89.70;38.40;;;13.80;99.90;;;;;;5016373;28;20042;-75
2022/10/20 01:11:55;;;;;;;99.28;44.55;;;13.80;99.90;;;;;;5017847;28;20045;-76
2022/10/20 01:14:32;;;;;;;96.75;42.85;;;13.80;99.90;;;;;;5017577;28;20061;-76
2022/10/20 01:17:28;;;;;;;106.88;45.08;;;13.90;99.90;;;;;;5027237;28;20057;-75
2022/10/20 01:20:14;;;;;;;104.75;46.15;;;13.90;99.90;;;;;;5037195;28;20045;-74
2022/10/20 01:23:05;;;;;;;100.65;46.97;;;14.00;99.90;;;;;;5036440;28;20056;-75
2022/10/20 01:25:38;;;;;;;96.05;45.03;;;14.10;99.90;;;;;;5027180;28;20053;-74
2022/10/20 01:28:27;;;;;;;91.90;43.60;;;14.10;99.90;;;;;;5035830;28;20041;-75
2022/10/20 01:31:01;;;;;;;93.90;42.83;;;14.30;99.90;;;;;;5037183;28;20045;-76
2022/10/20 01:34:07;;;;;;;93.97;43.67;;;14.30;99.90;;;;;;5036328;28;20495;-75
2022/10/20 01:36:46;;;;;;;80.32;41.92;;;14.40;99.90;;;;;;5014160;28;20049;-74
2022/10/20 01:39:23;;;;;;;80.15;41.50;;;14.50;99.90;;;;;;5015560;28;20054;-75
2022/10/20 01:41:56;;;;;;;77.05;39.33;;;14.50;99.90;;;;;;5027528;28;20041;-75
2022/10/20 01:44:27;;;;;;;78.18;40.50;;;14.60;99.90;;;;;;5036534;28;20052;-75
2022/10/20 01:46:57;;;;;;;72.45;38.40;;;14.70;99.90;;;;;;5036602;28;20042;-75
2022/10/20 01:49:25;;;;;;;81.03;38.38;;;14.70;99.90;;;;;;5035682;28;20064;-75
2022/10/20 01:51:53;;;;;;;;;;;14.70;99.90;;;;;;5036277;28;20054;-75
2022/10/20 01:54:23;;;;;;;77.25;36.25;;;14.80;99.90;;;;;;5035902;28;19925;-74
2022/10/20 01:57:06;;;;;;;78.40;37.85;;;14.80;99.90;;;;;;5017956;28;20062;-75
2022/10/20 01:59:39;;;;;;;72.50;36.10;;;14.90;99.90;;;;;;5034617;28;20041;-74
2022/10/20 02:02:17;;;;;;;75.07;36.97;;;14.90;99.90;;;;;;5035193;28;20048;-74
2022/10/20 02:04:48;;;;;;;;;;;14.90;99.90;;;;;;5036179;28;20045;-75
2022/10/20 02:07:25;;;;;;;71.65;34.95;;;15.00;99.90;;;;;;5035348;28;20344;-75
2022/10/20 02:10:02;;;;;;;66.15;35.35;;;15.00;99.90;;;;;;5034255;28;20053;-75
2022/10/20 02:12:34;;;;;;;68.33;36.40;;;15.00;99.90;;;;;;5036413;28;20056;-76
2022/10/20 02:15:04;;;;;;;74.63;36.63;;;15.00;99.90;;;;;;5035057;28;20049;-75
2022/10/20 02:17:35;;;;;;;76.00;37.47;;;15.10;99.90;;;;;;5018217;28;20061;-75
2022/10/20 02:20:05;;;;;;;72.43;37.38;;;15.10;99.90;;;;;;5016675;28;20037;-75
2022/10/20 02:22:33;;;;;;;71.47;37.40;;;15.10;99.90;;;;;;5015038;28;20049;-75
2022/10/20 02:25:02;;;;;;;74.47;37.90;;;15.10;99.90;;;;;;5016069;28;20046;-74
2022/10/20 02:27:34;;;;;;;74.82;37.88;;;15.10;99.90;;;;;;5016283;28;20045;-74
2022/10/20 02:30:11;;;;;;;78.50;37.22;;;15.10;99.90;;;;;;4998003;28;20060;-76
2022/10/20 02:32:41;;;;;;;95.20;40.17;;;15.10;99.90;;;;;;5016037;28;20054;-74
2022/10/20 02:35:13;;;;;;;82.05;40.28;;;15.10;99.90;;;;;;4998043;28;20057;-74
2022/10/20 02:37:41;;;;;;;81.95;39.70;;;15.10;99.90;;;;;;5016203;28;20053;-75
2022/10/20 02:40:09;;;;;;;77.25;40.05;;;15.10;99.90;;;;;;5015724;28;20056;-74
2022/10/20 02:42:39;;;;;;;80.03;39.53;;;15.20;99.90;;;;;;5014653;28;20050;-74
2022/10/20 02:45:07;;;;;;;82.28;39.45;;;15.20;99.90;;;;;;5016184;28;20053;-75
2022/10/20 02:47:34;;;;;;;;;;;15.20;99.90;;;;;;4999042;28;20053;-76
2022/10/20 02:50:03;;;;;;;74.90;39.33;;;15.20;99.90;;;;;;5014629;28;20375;-75
2022/10/20 02:52:30;;;;;;;84.75;40.03;;;15.20;99.90;;;;;;4998567;28;20053;-74
2022/10/20 02:54:58;;;;;;;89.25;40.58;;;15.20;99.90;;;;;;5014673;28;20056;-75
2022/10/20 02:57:26;;;;;;;83.63;40.70;;;15.10;99.90;;;;;;5015662;28;20065;-74
2022/10/20 02:59:53;;;;;;;82.28;39.75;;;15.20;99.90;;;;;;5015384;28;20453;-75
2022/10/20 03:02:21;;;;;;;90.68;40.65;;;15.20;99.90;;;;;;5014436;28;20053;-75
2022/10/20 03:04:48;;;;;;;98.32;41.13;;;15.20;99.90;;;;;;5015709;28;20046;-74
2022/10/20 03:07:16;;;;;;;83.65;40.05;;;15.20;99.90;;;;;;5015317;28;20050;-75
2022/10/20 03:09:43;;;;;;;85.60;40.85;;;15.20;99.90;;;;;;5014028;28;20053;-75
2022/10/20 03:12:11;;;;;;;89.78;42.03;;;15.20;99.90;;;;;;5015687;28;20058;-73
2022/10/20 03:14:40;;;;;;;92.18;40.97;;;15.20;99.90;;;;;;5014793;28;20057;-76
2022/10/20 03:17:08;;;;;;;98.93;42.30;;;15.20;99.90;;;;;;5015040;28;20465;-74
2022/10/20 03:19:36;;;;;;;92.97;42.45;;;15.20;99.90;;;;;;4998182;28;20045;-75
2022/10/20 03:22:03;;;;;;;90.35;41.75;;;15.20;99.90;;;;;;5014018;28;20050;-76
2022/10/20 03:24:31;;;;;;;88.18;42.53;;;15.20;99.90;;;;;;5015082;28;20053;-74
2022/10/20 03:26:59;;;;;;;90.95;41.40;;;15.20;99.90;;;;;;5015294;28;20060;-75
2022/10/20 03:29:26;;;;;;;91.25;42.22;;;15.30;99.90;;;;;;4996881;28;20049;-76
2022/10/20 03:31:54;;;;;;;87.78;41.55;;;15.30;99.90;;;;;;5015092;28;20050;-75
2022/10/20 03:34:21;;;;;;;92.75;41.72;;;15.30;99.90;;;;;;5015335;28;20046;-74
2022/10/20 03:36:49;;;;;;;86.45;41.80;;;15.30;99.90;;;;;;4996578;28;20060;-75
2022/10/20 03:39:16;;;;;;;91.20;42.50;;;15.30;99.90;;;;;;5014862;28;20469;-75
2022/10/20 03:41:44;;;;;;;90.25;43.03;;;15.30;99.90;;;;;;5014234;28;20461;-74
2022/10/20 03:44:11;;;;;;;95.38;42.17;;;15.40;99.90;;;;;;5015121;28;20042;-74
2022/10/20 03:46:39;;;;;;;85.30;42.45;;;15.30;99.90;;;;;;5014844;28;20054;-75
2022/10/20 03:49:06;;;;;;;85.13;42.08;;;15.40;99.90;;;;;;4996823;28;20045;-74
2022/10/20 03:51:34;;;;;;;92.28;43.92;;;15.40;99.90;;;;;;4997527;28;20049;-75
2022/10/20 03:54:02;;;;;;;100.15;44.45;;;15.40;99.90;;;;;;4997752;28;20052;-74
2022/10/20 03:56:29;;;;;;;94.03;43.25;;;15.40;99.90;;;;;;5013742;28;20053;-74
2022/10/20 03:58:57;;;;;;;104.60;45.58;;;15.40;99.90;;;;;;5014888;28;20046;-75
2022/10/20 04:01:29;;;;;;;98.75;42.97;;;15.40;99.90;;;;;;4996398;28;20042;-74
2022/10/20 04:03:57;;;;;;;112.93;44.78;;;15.40;99.90;;;;;;5014609;28;20050;-74
2022/10/20 04:06:25;;;;;;;97.95;42.60;;;15.40;99.90;;;;;;4998277;28;20049;-76
2022/10/20 04:08:52;;;;;;;103.88;42.58;;;15.40;99.90;;;;;;5013641;28;20047;-75
2022/10/20 04:11:20;;;;;;;88.78;42.13;;;15.40;99.90;;;;;;5014862;28;20053;-74
2022/10/20 04:13:47;;;;;;;100.13;43.05;;;15.40;99.90;;;;;;4997399;28;20508;-76
2022/10/20 04:16:15;;;;;;;84.43;42.33;;;15.10;99.90;;;;;;5006757;28;20053;-76
2022/10/20 04:18:43;;;;;;;80.38;41.05;;;15.40;99.90;;;;;;5033582;28;20049;-75
2022/10/20 04:21:10;;;;;;;90.63;42.22;;;15.40;99.90;;;;;;5034136;28;20052;-76
2022/10/20 04:23:38;;;;;;;93.93;41.88;;;15.40;99.90;;;;;;5037359;28;20050;-75
2022/10/20 04:26:14;;;;;;;88.75;41.67;;;15.40;99.90;;;;;;5037670;28;20053;-76
2022/10/20 04:28:42;;;;;;;103.60;42.80;;;15.40;99.90;;;;;;5037006;28;20041;-74
2022/10/20 04:31:09;;;;;;;95.13;41.10;;;15.40;99.90;;;;;;5037043;28;20408;-76
2022/10/20 04:33:37;;;;;;;90.13;42.28;;;15.40;99.90;;;;;;5038145;28;20045;-76
2022/10/20 04:36:07;;;;;;;95.85;41.83;;;15.40;99.90;;;;;;5036970;28;20487;-74
2022/10/20 04:38:35;;;;;;;89.95;42.67;;;15.40;99.90;;;;;;5038268;28;20515;-75
2022/10/20 04:41:03;;;;;;;90.78;42.67;;;15.40;99.90;;;;;;5037896;28;20041;-74
2022/10/20 04:43:33;;;;;;;90.88;42.55;;;15.40;99.90;;;;;;5035876;28;20068;-74
2022/10/20 04:46:05;;;;;;;86.68;42.67;;;14.70;99.90;;;;;;5037984;28;20037;-75
2022/10/20 04:48:36;;;;;;;97.32;43.33;;;15.50;99.90;;;;;;5035912;28;20499;-75
2022/10/20 04:51:07;;;;;;;93.57;43.13;;;15.50;99.90;;;;;;5037925;28;20065;-74
2022/10/20 04:53:35;;;;;;;93.50;43.20;;;15.50;99.90;;;;;;5037036;28;20052;-74
2022/10/20 04:56:04;;;;;;;95.45;43.65;;;15.50;99.90;;;;;;5036426;28;20053;-75
2022/10/20 04:58:32;;;;;;;91.95;42.17;;;15.50;99.90;;;;;;5037308;28;20091;-76
2022/10/20 05:01:06;;;;;;;91.80;42.88;;;15.50;99.90;;;;;;5036388;28;20060;-74
2022/10/20 05:03:35;;;;;;;89.80;42.35;;;15.50;99.90;;;;;;5038402;28;20045;-74
2022/10/20 05:06:18;;;;;;;89.07;41.80;;;15.50;99.90;;;;;;5056536;28;20055;-75
2022/10/20 05:08:48;;;;;;;101.40;43.40;;;15.50;99.90;;;;;;5055282;28;20041;-76
2022/10/20 05:11:17;;;;;;;99.15;43.58;;;15.50;99.90;;;;;;5040166;28;20053;-75
2022/10/20 05:13:45;;;;;;;101.72;44.55;;;15.60;99.90;;;;;;5056376;28;20372;-75
2022/10/20 05:16:13;;;;;;;106.97;44.78;;;15.60;99.90;;;;;;5051605;28;20468;-74
2022/10/20 05:18:40;;;;;;;111.50;43.75;;;15.50;99.90;;;;;;5037292;28;20049;-74
2022/10/20 05:21:17;;;;;;;100.40;43.05;;;15.50;99.90;;;;;;5036896;28;20054;-74
2022/10/20 05:23:45;;;;;;;101.85;42.30;;;15.50;99.90;;;;;;5003953;28;20049;-74
2022/10/20 05:26:16;;;;;;;103.35;44.38;;;15.60;99.90;;;;;;5019895;28;20041;-75
2022/10/20 05:28:48;;;;;;;107.00;45.40;;;15.50;99.90;;;;;;5036039;28;20046;-76
2022/10/20 05:31:18;;;;;;;110.10;45.20;;;15.60;99.90;;;;;;5019921;28;20049;-75
2022/10/20 05:33:48;;;;;;;114.55;45.33;;;15.50;99.90;;;;;;5035481;28;20050;-75
2022/10/20 05:36:18;;;;;;;107.85;45.92;;;15.50;99.90;;;;;;5018576;28;20053;-75
2022/10/20 05:38:49;;;;;;;102.50;43.67;;;15.50;99.90;;;;;;5019615;28;20472;-75
2022/10/20 05:41:22;;;;;;;125.15;46.30;;;15.50;99.90;;;;;;5035507;28;20045;-74
2022/10/20 05:43:52;;;;;;;115.93;45.17;;;15.50;99.90;;;;;;5036727;28;20056;-76
2022/10/20 05:46:20;;;;;;;115.88;48.80;;;15.50;99.90;;;;;;5019840;28;20041;-75
2022/10/20 05:48:47;;;;;;;122.18;48.78;;;15.40;99.90;;;;;;5035457;28;20046;-75
2022/10/20 05:51:18;;;;;;;123.63;50.30;;;15.50;99.90;;;;;;5035946;28;20057;-74
2022/10/20 05:53:46;;;;;;;123.18;49.67;;;15.50;99.90;;;;;;5019369;28;20049;-75
2022/10/20 05:56:17;;;;;;;130.52;49.67;;;15.50;99.90;;;;;;5018131;28;20050;-76
2022/10/20 05:58:48;;;;;;;127.63;49.45;;;15.50;99.90;;;;;;5003953;28;20045;-75
2022/10/20 06:01:23;;;;;;;136.80;50.75;;;15.50;99.90;;;;;;5035385;28;20046;-74
2022/10/20 06:03:55;;;;;;;129.98;49.85;;;15.50;99.90;;;;;;5036603;28;20042;-76
2022/10/20 06:06:29;;;;;;;135.57;50.60;;;15.50;99.90;;;;;;5019015;28;20121;-75
2022/10/20 06:08:58;;;;;;;124.88;49.53;;;15.50;99.90;;;;;;5001440;28;20515;-77
2022/10/20 06:11:26;;;;;;;116.50;48.65;;;15.50;99.90;;;;;;5036752;28;20346;-74
2022/10/20 06:13:55;;;;;;;;;;;15.50;99.90;;;;;;5019078;28;20049;-75
2022/10/20 06:16:28;;;;;;;129.65;47.83;;;15.50;99.90;;;;;;5026037;28;20362;-75
2022/10/20 06:18:58;;;;;;;124.68;48.47;;;15.50;99.90;;;;;;5055973;28;20052;-75
2022/10/20 06:21:28;;;;;;;140.90;50.55;;;15.50;99.90;;;;;;5054852;28;20056;-75
2022/10/20 06:24:00;;;;;;;132.10;49.38;;;15.50;99.90;;;;;;5056207;28;20033;-75
2022/10/20 06:26:31;;;;;;;128.23;46.80;;;15.50;99.90;;;;;;5055490;28;20037;-75
2022/10/20 06:28:59;;;;;;;133.55;46.97;;;15.60;99.90;;;;;;5053928;28;20048;-74
2022/10/20 06:31:37;;;;;;;145.60;49.03;;;15.60;99.90;;;;;;5055801;28;20048;-74
2022/10/20 06:34:07;;;;;;;134.55;49.25;;;15.60;99.90;;;;;;5054973;28;20045;-76
2022/10/20 06:36:36;;;;;;;121.93;46.95;;;15.60;99.90;;;;;;5053650;28;20064;-74
2022/10/20 06:39:06;;;;;;;124.70;47.63;;;15.60;99.90;;;;;;5055616;28;20049;-76
2022/10/20 06:41:34;;;;;;;129.20;47.67;;;15.60;99.90;;;;;;5054653;28;20200;-76
2022/10/20 06:44:01;;;;;;;119.20;47.10;;;15.60;99.90;;;;;;5055326;28;20494;-75
2022/10/20 06:46:32;;;;;;;119.72;47.13;;;15.60;99.90;;;;;;5055343;28;20037;-75
2022/10/20 06:49:02;;;;;;;129.60;46.80;;;15.60;99.90;;;;;;5051083;28;20041;-75
2022/10/20 06:51:30;;;;;;;123.78;45.92;;;15.60;99.90;;;;;;5033862;28;20045;-75
2022/10/20 06:53:58;;;;;;;136.93;46.15;;;15.60;99.90;;;;;;5034085;28;20057;-75
2022/10/20 06:56:28;;;;;;;133.50;46.28;;;15.60;99.90;;;;;;5033956;28;20049;-74
2022/10/20 06:58:57;;;;;;;117.53;44.60;;;15.60;99.90;;;;;;5034852;28;20072;-75
2022/10/20 07:01:27;;;;;;;129.88;46.15;;;15.60;99.90;;;;;;5033779;28;20044;-75
2022/10/20 07:03:58;;;;;;;124.63;45.72;;;15.60;99.90;;;;;;5034990;28;20064;-74
2022/10/20 07:06:31;;;;;;;129.23;46.15;;;15.60;99.90;;;;;;5017802;28;20502;-74
2022/10/20 07:09:00;;;;;;;124.75;45.75;;;15.60;99.90;;;;;;5033766;28;20041;-74
2022/10/20 07:11:29;;;;;;;122.45;44.85;;;15.60;99.90;;;;;;5034678;28;20057;-75
2022/10/20 07:13:58;;;;;;;119.70;43.45;;;15.70;99.90;;;;;;5034706;28;20053;-75
2022/10/20 07:16:28;;;;;;;123.07;44.78;;;15.70;99.90;;;;;;5027167;28;20053;-74
2022/10/20 07:18:56;;;;;;;119.35;42.53;;;15.70;99.90;;;;;;4997355;28;20065;-74
2022/10/20 07:21:25;;;;;;;130.15;46.15;;;15.70;99.90;;;;;;5013655;28;20377;-74
2022/10/20 07:24:01;;;;;;;118.90;45.05;;;15.70;99.90;;;;;;5014673;28;20050;-76
2022/10/20 07:26:32;;;;;;;118.53;45.22;;;15.70;99.90;;;;;;5014804;28;20042;-73
2022/10/20 07:29:03;;;;;;;123.15;44.28;;;15.70;99.90;;;;;;5014052;28;20516;-75
2022/10/20 07:31:37;;;;;;;111.63;42.05;;;15.80;99.90;;;;;;5014820;28;20045;-75
2022/10/20 07:34:05;;;;;;;108.22;41.63;;;15.80;99.90;;;;;;5014689;28;20504;-75
2022/10/20 07:36:51;;;;;;;109.68;38.10;;;15.80;99.90;;;;;;5013683;28;20054;-75
2022/10/20 07:39:18;;;;;;;97.05;38.97;;;15.70;99.90;;;;;;4997621;28;20346;-75
2022/10/20 07:41:46;;;;;;;93.60;36.45;;;15.80;99.90;;;;;;4996391;28;20384;-76
2022/10/20 07:44:15;;;;;;;91.97;36.53;;;15.80;99.90;;;;;;5014650;28;20042;-74
2022/10/20 07:46:43;;;;;;;92.95;36.63;;;15.80;99.90;;;;;;5014577;28;20048;-75
2022/10/20 07:49:11;;;;;;;99.20;37.75;;;15.70;99.90;;;;;;5013164;28;20053;-75
2022/10/20 07:51:59;;;;;;;84.90;37.53;;;15.80;99.90;;;;;;5020556;28;20456;-72
2022/10/20 07:54:26;;;;;;;95.03;36.95;;;15.80;99.90;;;;;;5015492;28;20346;-73
2022/10/20 07:56:54;;;;;;;88.85;35.65;;;15.80;99.90;;;;;;5034403;28;20053;-73
2022/10/20 07:59:23;;;;;;;79.60;33.70;;;15.80;99.90;;;;;;5037616;28;20049;-73
2022/10/20 08:01:51;;;;;;;79.97;34.35;;;15.80;99.90;;;;;;5037835;28;20301;-74
2022/10/20 08:04:22;;;;;;;82.25;34.08;;;15.80;99.90;;;;;;5039311;28;20449;-75
2022/10/20 08:06:49;;;;;;;80.35;34.50;;;15.80;99.90;;;;;;5039124;28;20056;-75
2022/10/20 08:09:17;;;;;;;68.82;31.35;;;15.80;99.90;;;;;;5037804;28;20104;-73
2022/10/20 08:11:45;;;;;;;63.05;30.15;;;15.90;99.90;;;;;;5038568;28;20053;-75
2022/10/20 08:14:12;;;;;;;64.47;28.77;;;15.90;99.90;;;;;;5038366;28;20053;-72
2022/10/20 08:16:40;;;;;;;59.05;28.20;;;15.90;99.90;;;;;;5033137;28;20049;-74
2022/10/20 08:19:07;;;;;;;75.57;31.52;;;16.00;99.90;;;;;;5041239;28;20061;-72
2022/10/20 08:21:38;;;;;;;63.58;28.73;;;16.00;99.90;;;;;;5055962;28;20053;-73
2022/10/20 08:24:05;;;;;;;57.03;25.77;;;16.00;99.90;;;;;;5058663;28;20064;-73
2022/10/20 08:26:33;;;;;;;55.30;26.70;;;16.00;99.90;;;;;;5056544;28;20048;-75
2022/10/20 08:29:01;;;;;;;56.00;26.10;;;16.10;99.90;;;;;;5057039;28;20037;-75
2022/10/20 08:31:29;;;;;;;65.07;28.92;;;16.10;99.90;;;;;;5057867;28;20049;-75
2022/10/20 08:33:56;;;;;;;65.15;26.40;;;16.10;99.90;;;;;;5058252;28;20044;-73
2022/10/20 08:36:24;;;;;;;66.10;27.33;;;16.20;99.90;;;;;;5056931;28;20045;-74
2022/10/20 08:38:53;;;;;;;55.17;25.92;;;16.30;99.90;;;;;;5058433;28;20376;-74
2022/10/20 08:41:25;;;;;;;52.35;25.15;;;16.30;99.90;;;;;;5057294;28;20060;-75
2022/10/20 08:43:56;;;;;;;54.55;27.58;;;16.40;99.90;;;;;;5056897;28;20044;-75
2022/10/20 08:46:29;;;;;;;65.85;29.35;;;16.50;99.90;;;;;;5057720;28;20052;-75
2022/10/20 08:48:57;;;;;;;54.35;26.40;;;16.60;99.90;;;;;;5056658;28;20049;-74
2022/10/20 08:51:29;;;;;;;44.53;25.05;;;16.70;99.90;;;;;;5057804;28;20041;-75
2022/10/20 08:53:59;;;;;;;55.88;24.75;;;16.70;99.90;;;;;;5056797;28;20053;-75
2022/10/20 08:56:29;;;;;;;51.60;23.33;;;16.80;99.90;;;;;;5057035;28;20053;-74
2022/10/20 08:58:57;;;;;;;51.28;23.98;;;16.90;99.90;;;;;;5058218;28;20052;-73
2022/10/20 09:01:32;;;;;;;51.58;24.60;;;16.90;99.90;;;;;;5056925;28;20049;-72
2022/10/20 09:04:25;;;;;;;39.85;20.95;;;16.90;99.90;;;;;;5057442;28;20052;-75
2022/10/20 09:07:00;;;;;;;45.97;23.13;;;16.90;99.90;;;;;;5057386;28;20048;-73
2022/10/20 09:09:30;;;;;;;44.05;21.85;;;16.80;99.90;;;;;;5057017;28;20048;-74
2022/10/20 09:12:06;;;;;;;54.60;22.85;;;16.90;99.90;;;;;;5057408;28;20049;-74
2022/10/20 09:14:36;;;;;;;32.25;17.50;;;16.90;99.90;;;;;;5057561;28;20464;-75
2022/10/20 09:17:04;;;;;;;34.92;18.95;;;16.90;99.90;;;;;;5045552;28;20061;-74
2022/10/20 09:19:38;;;;;;;38.13;16.63;;;16.90;99.90;;;;;;5036526;28;20054;-76
2022/10/20 09:22:06;;;;;;;42.28;17.90;;;16.80;99.90;;;;;;5035966;28;20046;-74
2022/10/20 09:24:35;;;;;;;29.20;16.20;;;16.80;99.90;;;;;;5037167;28;20041;-75
2022/10/20 09:27:30;;;;;;;38.85;17.23;;;16.80;99.90;;;;;;5036842;28;20045;-74
2022/10/20 09:30:11;;;;;;;34.08;17.75;;;16.90;99.90;;;;;;5035967;28;20046;-75
2022/10/20 09:32:39;;;;;;;38.72;17.00;;;16.90;99.90;;;;;;5019018;28;20049;-75
2022/10/20 09:35:22;;;;;;;35.05;15.38;;;17.00;99.90;;;;;;5018432;28;20038;-74
2022/10/20 09:38:00;;;;;;;31.35;14.55;;;17.00;99.90;;;;;;5036621;28;20064;-73
2022/10/20 09:40:29;;;;;;;32.78;14.75;;;17.00;99.90;;;;;;5019564;28;20054;-73
2022/10/20 09:43:07;;;;;;;27.45;14.65;;;17.00;99.90;;;;;;5018787;28;20486;-74
2022/10/20 09:45:46;;;;;;;26.40;14.75;;;17.10;99.90;;;;;;5036386;28;20053;-74
2022/10/20 09:48:24;;;;;;;26.05;14.70;;;17.10;99.90;;;;;;5035365;28;20059;-74
2022/10/20 09:50:55;;;;;;;25.52;14.00;;;17.20;99.90;;;;;;5036366;28;20042;-75
2022/10/20 09:53:33;;;;;;;33.78;15.30;;;17.30;99.90;;;;;;5036500;28;20068;-74
2022/10/20 09:56:00;;;;;;;;;;;17.30;99.90;;;;;;5018517;28;20049;-74
2022/10/20 09:58:34;;;;;;;29.70;15.15;;;17.40;99.90;;;;;;5019026;28;20237;-75
2022/10/20 10:01:10;;;;;;;29.73;14.15;;;17.30;99.90;;;;;;5036471;28;20041;-75
2022/10/20 10:04:00;;;;;;;22.55;12.82;;;17.40;99.90;;;;;;5035216;28;20046;-75
2022/10/20 10:06:31;;;;;;;25.98;13.15;;;17.40;99.90;;;;;;5019030;28;20042;-75
2022/10/20 10:09:00;;;;;;;26.02;12.93;;;17.40;99.90;;;;;;5035172;28;20472;-74
2022/10/20 10:11:37;;;;;;;41.40;15.18;;;17.30;99.90;;;;;;5036203;28;20377;-74
2022/10/20 10:14:05;;;;;;;31.75;13.13;;;17.30;99.90;;;;;;5036043;28;20053;-74
2022/10/20 10:16:40;;;;;;;35.75;13.82;;;17.10;99.90;;;;;;5028653;28;20049;-73
2022/10/20 10:19:16;;;;;;;40.72;12.77;;;17.00;99.90;;;;;;5037546;28;20399;-74
2022/10/20 10:21:53;;;;;;;66.43;13.60;;;17.00;99.90;;;;;;5053957;28;20049;-74
2022/10/20 10:24:47;;;;;;;30.23;12.63;;;16.80;99.90;;;;;;5051911;28;20475;-73
2022/10/20 10:27:25;;;;;;;32.47;13.68;;;16.70;99.90;;;;;;5053623;28;20045;-73
2022/10/20 10:29:54;;;;;;;32.70;14.45;;;16.60;99.90;;;;;;5051513;28;20050;-73
2022/10/20 10:32:27;;;;;;;33.85;14.15;;;16.50;99.90;;;;;;5048930;28;20365;-77
2022/10/20 10:35:11;;;;;;;43.75;15.57;;;16.40;99.90;;;;;;5050000;28;20052;-75
2022/10/20 10:37:42;;;;;;;53.72;17.48;;;16.30;99.90;;;;;;5055069;28;20052;-76
2022/10/20 10:40:16;;;;;;;37.72;14.90;;;16.30;99.90;;;;;;5055195;28;20049;-78
2022/10/20 10:43:28;;;;;;;36.38;14.65;;;16.20;99.90;;;;;;5054794;28;20041;-76
2022/10/20 10:46:08;;;;;;;;;;;;;;;;;;;;;
2022/10/20 10:48:57;;;;;;;35.97;15.70;;;16.30;99.90;;;;;;5035339;28;20053;-76
2022/10/20 10:51:53;;;;;;;24.88;11.50;;;14.90;99.90;;;;;;5035191;28;20046;-76
2022/10/20 10:54:23;;;;;;;27.60;10.80;;;16.70;99.90;;;;;;5035519;28;20045;-76
2022/10/20 10:56:58;;;;;;;24.98;12.77;;;16.90;99.90;;;;;;5034560;28;20056;-74
2022/10/20 10:59:37;;;;;;;26.98;12.02;;;17.20;99.90;;;;;;5034706;28;20044;-78
2022/10/20 11:02:25;;;;;;;30.95;13.63;;;15.80;99.90;;;;;;5034825;28;20380;-78
2022/10/20 11:05:14;;;;;;;20.95;10.82;;;17.20;99.90;;;;;;5035804;28;20056;-75
2022/10/20 11:08:09;;;;;;;22.65;11.82;;;17.60;99.90;;;;;;5034703;28;20460;-73
2022/10/20 11:11:15;;;;;;;24.05;11.88;;;17.70;99.90;;;;;;5055044;28;20036;-73
2022/10/20 11:13:56;;;;;;;32.03;15.95;;;17.60;99.90;;;;;;5016768;28;20511;-73
2022/10/20 11:16:43;;;;;;;31.20;15.60;;;18.10;99.90;;;;;;5017178;28;20070;-73
2022/10/20 11:19:23;;;;;;;26.90;15.07;;;18.10;99.90;;;;;;5028980;28;20041;-75
2022/10/20 11:22:00;;;;;;;27.00;13.05;;;18.10;99.90;;;;;;5053642;28;20053;-76
2022/10/20 11:25:02;;;;;;;19.27;8.43;;;18.90;99.90;;;;;;5037891;28;20482;-73
2022/10/20 11:27:34;;;;;;;14.02;7.10;;;18.30;99.90;;;;;;5054874;28;20055;-79
2022/10/20 11:30:19;;;;;;;17.85;6.82;;;18.40;99.90;;;;;;5052518;28;20372;-77
2022/10/20 11:33:16;;;;;;;14.85;6.47;;;19.80;99.90;;;;;;5054708;28;20052;-77
2022/10/20 11:36:05;;;;;;;15.23;6.22;;;18.70;99.90;;;;;;5029538;28;20053;-77
2022/10/20 11:38:53;;;;;;;13.50;5.00;;;18.70;99.90;;;;;;5035404;28;20041;-76
2022/10/20 11:41:33;;;;;;;;;;;18.70;99.90;;;;;;5033979;28;20050;-76
2022/10/20 11:44:11;;;;;;;16.15;5.05;;;18.70;99.90;;;;;;5034335;28;20351;-76
2022/10/20 11:46:56;;;;;;;13.60;4.80;;;18.70;99.90;;;;;;5034024;28;20048;-76
2022/10/20 11:49:24;;;;;;;15.38;4.95;;;18.70;99.90;;;;;;5036449;28;20060;-77
2022/10/20 11:52:57;;;;;;;14.00;5.10;;;18.60;99.90;;;;;;5054053;28;20117;-77
2022/10/20 11:55:43;;;;;;;14.15;5.07;;;18.50;99.90;;;;;;4977642;28;20125;-77
2022/10/20 11:58:29;;;;;;;22.38;5.07;;;18.40;99.90;;;;;;5050486;28;20041;-77
2022/10/20 12:01:00;;;;;;;19.30;4.57;;;18.30;99.90;;;;;;5054115;28;20041;-77
2022/10/20 12:03:28;;;;;;;14.15;4.63;;;18.20;99.90;;;;;;5050070;28;20049;-77
2022/10/20 12:06:28;;;;;;;14.05;4.80;;;18.20;99.90;;;;;;5053198;28;20057;-77
2022/10/20 12:08:56;;;;;;;9.75;4.72;;;17.30;99.90;;;;;;5035762;28;20048;-77
2022/10/20 12:11:56;;;;;;;17.38;5.50;;;18.10;99.90;;;;;;5054046;28;20056;-78
2022/10/20 12:14:30;;;;;;;17.90;5.75;;;17.90;99.90;;;;;;5036412;28;20068;-76
2022/10/20 12:17:11;;;;;;;28.00;6.38;;;17.90;99.90;;;;;;5052328;28;20518;-76
2022/10/20 12:19:39;;;;;;;20.13;5.85;;;17.80;99.90;;;;;;5052936;28;20049;-76
2022/10/20 12:22:13;;;;;;;;;;;17.60;99.90;;;;;;5036019;28;20102;-77
2022/10/20 12:24:53;;;;;;;20.75;5.75;;;19.40;99.90;;;;;;5053333;28;19920;-76
2022/10/20 12:27:26;;;;;;;23.33;5.93;;;17.50;99.90;;;;;;5053438;28;20448;-76
2022/10/20 12:30:34;;;;;;;15.98;4.65;;;17.30;99.90;;;;;;5052085;28;20041;-76
2022/10/20 12:33:16;;;;;;;14.38;4.13;;;17.30;99.90;;;;;;5034168;28;20046;-76
2022/10/20 12:35:56;;;;;;;25.48;4.50;;;17.20;99.90;;;;;;5033019;28;20384;-74
2022/10/20 12:38:25;;;;;;;12.75;3.33;;;17.10;99.90;;;;;;5034100;28;20476;-75
2022/10/20 12:41:00;;;;;;;18.95;4.22;;;17.10;99.90;;;;;;5033239;28;20060;-75
2022/10/20 12:43:35;;;;;;;24.83;4.05;;;17.00;99.90;;;;;;5034439;28;20057;-76
2022/10/20 12:46:11;;;;;;;13.40;3.65;;;17.20;99.90;;;;;;5037685;28;20037;-77
2022/10/20 12:48:44;;;;;;;16.83;4.00;;;16.60;99.90;;;;;;5035085;28;20053;-76
2022/10/20 12:51:45;;;;;;;19.02;4.25;;;17.30;99.90;;;;;;5036213;28;20060;-77
2022/10/20 12:54:22;;;;;;;20.42;4.05;;;17.30;99.90;;;;;;5036685;28;20483;-76
2022/10/20 12:56:53;;;;;;;11.27;3.17;;;17.40;99.90;;;;;;5035876;28;20046;-77
2022/10/20 12:59:26;;;;;;;15.02;2.70;;;17.50;99.90;;;;;;5037460;28;20061;-73
2022/10/20 13:02:08;;;;;;;9.50;2.70;;;17.50;99.90;;;;;;5055294;28;20048;-76